EW9732 Weather Reports


Display with metric or nautical units.
time (UTC)temp
F
wind
direction
speed
MPH
gust
MPH
rain 1hr
in
rain 24hr
in
rain mn
in
humidity
%
barometer
mb
20240417091528 48 120 0.0 1.0 0.00 0.06 0.00 43 1008.2
20240417090030 48 22 0.0 3.0 0.00 0.06 0.00 42 1008.2
20240417084525 48 228 0.0 3.0 0.00 0.06 0.00 42 1008.4
20240417083035 48 221 0.0 4.0 0.00 0.06 0.00 42 1008.4
20240417081524 48 222 0.0 3.0 0.00 0.06 0.00 43 1008.3
20240417080024 48 211 0.0 1.0 0.00 0.06 0.00 42 1008.4
20240417074526 48 150 0.0 0.0 0.00 0.06 0.00 41 1008.4
20240417073020 49 293 0.0 1.0 0.00 0.06 0.00 40 1008.4
20240417071521 49 131 0.0 2.0 0.00 0.06 0.00 41 1008.3
20240417070016 49 192 0.0 1.0 0.00 0.06 0.00 42 1008.4
20240417064513 50 281 0.0 1.0 0.00 0.06 0.00 41 1008.5
20240417063012 50 224 0.0 3.0 0.00 0.06 0.00 39 1008.5
20240417061513 51 217 0.0 3.0 0.00 0.06 0.00 38 1008.5
20240417060007 50 245 1.0 3.0 0.00 0.06 0.06 40 1008.5
20240417054507 50 107 0.0 0.0 0.00 0.06 0.06 39 1008.3
20240417053006 52 129 0.0 2.0 0.00 0.06 0.06 36 1008.3
20240417051505 52 129 0.0 2.0 0.00 0.06 0.06 35 1008.3
20240417050005 53 213 0.0 2.0 0.00 0.06 0.06 34 1008.2
20240417044503 55 229 0.0 2.0 0.00 0.06 0.06 31 1008.2
20240417043003 55 141 0.0 3.0 0.00 0.06 0.06 30 1008.2
20240417041501 56 203 0.0 3.0 0.00 0.06 0.06 30 1008.1
20240417040106 56 153 1.0 4.0 0.00 0.06 0.06 30 1008.0
20240417034600 55 248 0.0 0.0 0.00 0.06 0.06 30 1007.9
20240417033106 55 214 0.0 0.0 0.00 0.06 0.06 31 1008.1
20240417031558 56 129 0.0 0.0 0.00 0.06 0.06 31 1007.9
20240417030104 56 129 0.0 0.0 0.00 0.06 0.06 30 1007.7
20240417024554 57 176 0.0 0.0 0.00 0.06 0.06 29 1007.2
20240417023051 58 207 0.0 0.0 0.00 0.06 0.06 28 1006.7
20240417021554 60 241 0.0 7.0 0.00 0.06 0.06 26 1006.4
20240417020052 60 301 1.0 8.0 0.00 0.06 0.06 26 1005.7
20240417014546 61 261 4.0 11.0 0.00 0.06 0.06 25 1005.5
20240417013046 62 243 2.0 5.0 0.00 0.06 0.06 24 1005.2
20240417011551 64 304 1.0 12.0 0.00 0.06 0.06 24 1005.2
20240417010047 64 245 3.0 9.0 0.00 0.06 0.06 25 1005.1
20240417004545 64 301 4.0 12.0 0.00 0.06 0.06 25 1005.2
20240417003043 64 249 7.0 15.0 0.00 0.06 0.06 25 1005.5
20240417001543 65 298 5.0 13.0 0.00 0.06 0.06 25 1005.2
20240417000057 65 282 5.0 17.0 0.00 0.06 0.06 24 1005.1
20240416234542 65 269 6.0 16.0 0.00 0.06 0.06 25 1005.2
20240416233039 65 302 11.0 19.0 0.00 0.06 0.06 24 1005.0
20240416231538 66 297 5.0 13.0 0.00 0.06 0.06 24 1004.8
20240416230037 66 276 3.0 11.0 0.00 0.06 0.06 24 1004.6
20240416224537 66 289 8.0 19.0 0.00 0.06 0.06 23 1004.6
20240416223046 65 276 6.0 13.0 0.00 0.06 0.06 24 1004.7
20240416221538 65 330 7.0 22.0 0.00 0.06 0.06 24 1004.7
20240416220034 65 260 10.0 20.0 0.00 0.06 0.06 24 1004.8
20240416214536 65 333 5.0 17.0 0.00 0.06 0.06 25 1004.7
20240416213036 65 285 6.0 17.0 0.00 0.06 0.06 25 1004.5
20240416211545 65 302 7.0 17.0 0.00 0.06 0.06 26 1004.4
20240416210031 66 291 8.0 21.0 0.00 0.06 0.06 25 1004.5
20240416204538 65 311 7.0 15.0 0.00 0.06 0.06 26 1004.6
20240416203037 65 226 4.0 14.0 0.00 0.06 0.06 27 1004.8
20240416201545 65 268 7.0 19.0 0.00 0.06 0.06 26 1004.6
20240416200036 64 292 7.0 18.0 0.00 0.06 0.06 27 1004.6
20240416194530 64 263 4.0 23.0 0.00 0.06 0.06 26 1004.6
20240416193028 64 344 7.0 17.0 0.00 0.06 0.06 28 1004.6
20240416191523 63 278 7.0 25.0 0.00 0.06 0.06 27 1004.4
20240416190022 64 333 10.0 19.0 0.00 0.06 0.06 26 1004.4
20240416184524 63 321 7.0 22.0 0.00 0.06 0.06 28 1004.3
20240416183023 63 323 4.0 13.0 0.00 0.06 0.06 28 1004.0
20240416181517 63 304 8.0 16.0 0.00 0.06 0.06 28 1003.7
20240416180018 63 349 5.0 19.0 0.00 0.06 0.06 29 1003.6
20240416174510 62 243 7.0 18.0 0.00 0.06 0.06 30 1003.5
20240416173010 61 319 4.0 15.0 0.00 0.06 0.06 32 1003.3
20240416171501 60 279 6.0 16.0 0.00 0.06 0.06 33 1002.8
20240416170100 59 336 6.0 19.0 0.00 0.06 0.06 34 1002.6
20240416164558 59 274 8.0 18.0 0.00 0.06 0.06 34 1002.1
20240416163116 58 314 8.0 18.0 0.00 0.06 0.06 35 1001.9
20240416161552 58 305 5.0 17.0 0.00 0.06 0.06 36 1001.7
20240416160050 59 340 10.0 24.0 0.00 0.06 0.06 34 1001.2
20240416154548 58 308 8.0 16.0 0.00 0.06 0.06 36 1001.0
20240416153049 57 34 3.0 8.0 0.00 0.06 0.06 43 1000.9
20240416151542 55 17 0.0 4.0 0.00 0.06 0.06 53 1000.8
20240416150039 52 107 1.0 4.0 0.00 0.06 0.06 59 1000.7
20240416144532 50 207 2.0 4.0 0.00 0.06 0.06 70 1000.5
20240416143030 47 227 0.0 5.0 0.00 0.06 0.06 79 1000.3
20240416141530 46 112 0.0 4.0 0.00 0.06 0.06 81 1000.4
20240416140028 45 163 0.0 6.0 0.00 0.06 0.06 83 1000.4
20240416134530 45 248 0.0 6.0 0.00 0.06 0.06 84 1000.2
20240416133029 44 177 3.0 8.0 0.00 0.06 0.06 84 999.9
20240416131526 44 219 0.0 6.0 0.00 0.06 0.06 85 999.8
20240416130023 44 213 0.0 4.0 0.00 0.06 0.06 84 999.8
20240416124542 44 219 0.0 0.0 0.00 0.06 0.06 85 999.7
20240416123019 44 126 0.0 0.0 0.00 0.06 0.06 85 999.4
20240416121518 44 126 0.0 1.0 0.01 0.06 0.06 85 998.6
20240416120018 43 54 0.0 1.0 0.03 0.06 0.06 85 998.9
20240416114517 43 3 0.0 4.0 0.06 0.06 0.06 84 998.8
20240416113038 44 109 0.0 4.0 0.06 0.06 0.06 84 998.6
20240416111516 44 46 2.0 8.0 0.05 0.05 0.05 79 998.8
20240416110009 46 332 2.0 19.0 0.03 0.03 0.03 69 999.1
20240416104505 50 12 3.0 13.0 0.00 0.00 0.00 50 998.7
20240416103126 52 304 6.0 17.0 0.00 0.00 0.00 42 997.7
20240416101559 51 300 0.0 6.0 0.00 0.00 0.00 38 997.3
20240416100054 51 104 0.0 2.0 0.00 0.00 0.00 39 997.0
20240416094554 50 43 0.0 1.0 0.00 0.00 0.00 41 996.3
20240416093048 50 288 0.0 1.0 0.00 0.00 0.00 41 995.7